Minneapolis, MN

8:13 PM CDT on August 22, 2017 (GMT -0500)
Minneapolis-Saint Paul International | | Change Station

Elev 840 ft 44.88 °N, 93.22 °W | Updated 20 minutes ago

Partly Cloudy
Partly Cloudy
69 °F
Feels Like 69 °F
N
12
Wind Variable Wind from WNW

Today
High -- | Low -- °F
--% Chance of Precip.
Yesterday
High -- | Low -- °F
Precip. -- in
Pressure 30.03 in
Visibility 10.0 miles
Clouds Few 7000 ft
Few 30000 ft
Dew Point 48 °F
Humidity 47%
Rainfall 0.00 in
Snow Depth Not available.
6:23 AM 8:06 PM
New Moon, 2% visible
METAR KMSP 230053Z 30010KT 10SM FEW070 FEW300 21/09 A3003 RMK AO2 SLP168 T02060089
Pressure 30.03 in
Visibility 10.0 miles
Clouds Few 7000 ft
Few 30000 ft
Dew Point 48 °F
Humidity 47%
Rainfall 0.00 in
Snow Depth Not available.
6:23 AM 8:06 PM
New Moon, 2% visible
METAR KMSP 230053Z 30010KT 10SM FEW070 FEW300 21/09 A3003 RMK AO2 SLP168 T02060089

Get Severe Weather Alerts

Thanks for signing up!

Be on the lookout for a verification email in your inbox.

You'll start receiving the daily forecast at 6 AM.

×

10-Day Weather Forecast

Almanac

Astronomy

Aug. 22, 2017 Rise Set
Actual Time
Civil Twilight
Nautical Twilight
Astronomical Twilight
Moon
Length of Visible Light
Length of Day
Tomorrow will be .
, % of the Moon is Illuminated

Today's Extremes

State Highs State Lows

Community

WunderPhotos

Category 6

Welcome to Category 6. This is the collective home for Weather Underground's featured writeups by Dr. Jeff Masters (right), Bob Henson (left), Chris Burt, and other regular contributors.

Nearby

Air Quality

  Air Quality AQ Index Pollutant
Not available.

Snow Depth

Station Depth Elevation

Earthquake Activity

City Distance Mag. Time & Date
Minimum magnitude displayed is 2.5.

Coastal Water Temperatures

Place Temperature

Stations

Nearby Weather Stations

Station Location Temp. Windchill Dew Point Humidity Wind Precip. Elev Updated Type
                   

Watches & Warnings

There are currently no watches in effect.